createdAt,value
2022-12-08T00:01:07.249Z,19.60
2022-12-08T00:03:08.791Z,17.40
2022-12-08T00:05:29.187Z,17.92
2022-12-08T00:07:49.853Z,19.80
2022-12-08T00:09:51.289Z,20.55
2022-12-08T00:12:06.821Z,21.02
2022-12-08T00:14:08.234Z,17.23
2022-12-08T00:16:09.942Z,18.48
2022-12-08T00:18:12.082Z,20.17
2022-12-08T00:20:13.526Z,23.55
2022-12-08T00:22:15.211Z,22.80
2022-12-08T00:24:17.565Z,23.58
2022-12-08T00:26:18.976Z,24.65
2022-12-08T00:28:20.418Z,27.40
2022-12-08T00:30:21.822Z,24.85
2022-12-08T00:32:23.324Z,29.35
2022-12-08T00:34:24.925Z,23.08
2022-12-08T00:36:26.433Z,28.27
2022-12-08T00:38:27.836Z,25.48
2022-12-08T00:40:29.364Z,29.25
2022-12-08T00:42:30.790Z,26.60
2022-12-08T00:44:32.195Z,30.55
2022-12-08T00:46:33.712Z,31.95
2022-12-08T00:48:35.287Z,32.25
2022-12-08T00:50:36.774Z,30.27
2022-12-08T00:52:38.643Z,30.63
2022-12-08T00:54:40.141Z,29.60
2022-12-08T00:56:41.611Z,27.90
2022-12-08T00:58:43.014Z,28.27
2022-12-08T01:00:44.553Z,29.90
2022-12-08T01:02:46.045Z,29.33
2022-12-08T01:04:47.454Z,27.25
2022-12-08T01:06:49.278Z,28.60
2022-12-08T01:08:50.742Z,31.73
2022-12-08T01:10:52.431Z,27.77
2022-12-08T01:12:53.839Z,32.13
2022-12-08T01:15:00.624Z,30.67
2022-12-08T01:17:03.753Z,31.92
2022-12-08T01:19:05.212Z,30.55
2022-12-08T01:21:08.038Z,29.67
2022-12-08T01:23:09.453Z,22.70
2022-12-08T01:25:10.929Z,30.27
2022-12-08T01:27:12.318Z,26.27
2022-12-08T01:29:13.917Z,27.27
2022-12-08T01:31:20.026Z,26.55
2022-12-08T01:33:22.246Z,27.00
2022-12-08T01:35:23.626Z,28.30
2022-12-08T01:37:26.109Z,27.85
2022-12-08T01:39:27.621Z,25.08
2022-12-08T01:41:31.970Z,25.77
2022-12-08T01:43:59.702Z,22.98
2022-12-08T01:46:01.149Z,19.83
2022-12-08T01:48:13.934Z,22.52
2022-12-08T01:50:19.536Z,26.73
2022-12-08T01:52:29.111Z,24.00
2022-12-08T01:54:39.524Z,21.27
2022-12-08T01:56:49.997Z,19.83
2022-12-08T01:58:54.355Z,19.52
2022-12-08T02:00:55.864Z,20.13
2022-12-08T02:02:59.539Z,22.30
2022-12-08T02:05:02.253Z,21.27
2022-12-08T02:07:08.113Z,24.23
2022-12-08T02:09:10.309Z,19.95
2022-12-08T02:11:12.609Z,19.02
2022-12-08T02:13:17.860Z,18.40
2022-12-08T02:15:22.983Z,19.30
2022-12-08T02:17:49.330Z,16.80
2022-12-08T02:20:17.538Z,17.00
2022-12-08T02:22:39.125Z,18.05
2022-12-08T02:25:08.969Z,15.15
2022-12-08T02:27:38.619Z,16.40
2022-12-08T02:29:52.097Z,17.52
2022-12-08T02:34:03.820Z,21.15
2022-12-08T02:38:46.420Z,13.48
2022-12-08T02:41:07.759Z,16.20
2022-12-08T02:43:29.526Z,16.40
2022-12-08T02:45:36.241Z,16.55
2022-12-08T02:47:38.213Z,15.52
2022-12-08T02:49:39.702Z,18.92
2022-12-08T02:51:41.277Z,14.82
2022-12-08T02:53:44.387Z,17.95
2022-12-08T02:56:14.270Z,13.63
2022-12-08T02:58:21.664Z,13.63
2022-12-08T03:00:27.364Z,17.50
2022-12-08T03:03:02.847Z,16.55
2022-12-08T03:05:22.559Z,17.20
2022-12-08T03:07:39.549Z,18.80
2022-12-08T03:09:50.210Z,17.77
2022-12-08T03:12:01.467Z,16.13
2022-12-08T03:14:06.487Z,20.33
2022-12-08T03:16:10.974Z,19.08
2022-12-08T03:18:16.165Z,18.20
2022-12-08T03:20:21.413Z,16.90
2022-12-08T03:22:25.725Z,19.42
2022-12-08T03:24:27.343Z,17.15
2022-12-08T03:26:43.535Z,16.88
2022-12-08T03:28:45.984Z,19.10
2022-12-08T03:30:51.941Z,16.92
2022-12-08T03:33:04.082Z,15.70
2022-12-08T03:35:10.833Z,19.98
2022-12-08T03:37:12.440Z,17.65
2022-12-08T03:39:14.536Z,22.08
2022-12-08T03:41:18.499Z,18.85
2022-12-08T03:43:19.875Z,16.48
2022-12-08T03:45:22.804Z,16.63
2022-12-08T03:47:24.209Z,16.83
2022-12-08T03:49:25.797Z,17.50
2022-12-08T03:51:27.290Z,19.52
2022-12-08T03:53:28.735Z,19.98
2022-12-08T03:55:30.187Z,14.70
2022-12-08T03:57:31.577Z,21.08
2022-12-08T03:59:32.991Z,19.50
2022-12-08T04:01:34.652Z,17.88
2022-12-08T04:03:36.290Z,18.80
2022-12-08T04:05:39.011Z,16.75
2022-12-08T04:07:40.492Z,16.73
2022-12-08T04:09:42.066Z,16.63
2022-12-08T04:11:43.612Z,18.58
2022-12-08T04:13:45.585Z,21.60
2022-12-08T04:15:48.599Z,18.02
2022-12-08T04:17:50.101Z,18.73
2022-12-08T04:19:51.511Z,18.75
2022-12-08T04:21:52.970Z,18.85
2022-12-08T04:24:00.609Z,18.80
2022-12-08T04:26:03.432Z,20.67
2022-12-08T04:28:09.460Z,17.95
2022-12-08T04:30:11.438Z,21.08
2022-12-08T04:32:12.859Z,15.27
2022-12-08T04:34:14.261Z,19.70
2022-12-08T04:36:15.773Z,20.70
2022-12-08T04:38:17.247Z,18.88
2022-12-08T04:40:18.905Z,17.80
2022-12-08T04:42:20.314Z,21.50
2022-12-08T04:44:21.695Z,20.13
2022-12-08T04:46:23.208Z,19.98
2022-12-08T04:48:24.729Z,22.17
2022-12-08T04:50:26.452Z,18.63
2022-12-08T04:52:27.941Z,19.50
2022-12-08T04:54:29.327Z,20.60
2022-12-08T04:56:30.748Z,20.23
2022-12-08T04:58:32.161Z,18.60
2022-12-08T05:00:33.843Z,20.98
2022-12-08T05:02:35.461Z,18.50
2022-12-08T05:04:36.948Z,21.50
2022-12-08T05:06:38.353Z,19.60
2022-12-08T05:08:40.314Z,21.98
2022-12-08T05:10:41.693Z,18.25
2022-12-08T05:12:43.152Z,19.85
2022-12-08T05:14:44.564Z,22.05
2022-12-08T05:16:46.484Z,17.63
2022-12-08T05:18:48.011Z,18.42
2022-12-08T05:20:49.378Z,17.77
2022-12-08T05:22:50.756Z,16.30
2022-12-08T05:24:52.223Z,16.90
2022-12-08T05:26:53.621Z,18.02
2022-12-08T05:28:55.042Z,18.13
2022-12-08T05:30:56.479Z,18.05
2022-12-08T05:32:57.900Z,17.58
2022-12-08T05:34:59.362Z,17.70
2022-12-08T05:37:00.830Z,15.68
2022-12-08T05:39:02.344Z,14.77
2022-12-08T05:41:03.907Z,14.73
2022-12-08T05:43:05.460Z,16.23
2022-12-08T05:45:07.470Z,13.60
2022-12-08T05:47:08.928Z,13.27
2022-12-08T05:49:10.341Z,14.23
2022-12-08T05:51:23.022Z,13.65
2022-12-08T05:53:24.622Z,13.88
2022-12-08T05:55:26.018Z,13.18
2022-12-08T05:57:27.395Z,12.20
2022-12-08T05:59:28.847Z,14.93
2022-12-08T06:01:31.774Z,12.43
2022-12-08T06:03:34.036Z,12.23
2022-12-08T06:05:35.926Z,12.10
2022-12-08T06:07:37.676Z,12.63
2022-12-08T06:09:39.160Z,12.77
2022-12-08T06:11:40.653Z,16.63
2022-12-08T06:13:42.052Z,13.27
2022-12-08T06:15:43.486Z,14.27
2022-12-08T06:17:45.146Z,14.52
2022-12-08T06:19:46.518Z,11.15
2022-12-08T06:21:47.918Z,12.43
2022-12-08T06:23:51.904Z,12.95
2022-12-08T06:25:53.307Z,12.93
2022-12-08T06:27:54.766Z,14.15
2022-12-08T06:29:56.442Z,13.70
2022-12-08T06:31:57.953Z,13.75
2022-12-08T06:33:59.485Z,12.55
2022-12-08T06:36:00.939Z,12.85
2022-12-08T06:38:02.396Z,13.88
2022-12-08T06:40:04.480Z,13.27
2022-12-08T06:42:25.089Z,12.00
2022-12-08T06:44:26.484Z,11.20
2022-12-08T06:46:27.964Z,13.82
2022-12-08T06:48:29.401Z,12.60
2022-12-08T06:50:30.851Z,12.93
2022-12-08T06:52:32.304Z,13.35
2022-12-08T06:54:33.704Z,15.13
2022-12-08T06:56:35.266Z,12.43
2022-12-08T06:58:37.040Z,13.05
2022-12-08T07:00:39.805Z,12.13
2022-12-08T07:02:42.603Z,11.23
2022-12-08T07:04:44.221Z,13.07
2022-12-08T07:06:45.600Z,15.00
2022-12-08T07:08:47.121Z,13.10
2022-12-08T07:10:48.655Z,13.27
2022-12-08T07:12:50.057Z,13.68
2022-12-08T07:14:51.452Z,11.80
2022-12-08T07:16:52.987Z,10.98
2022-12-08T07:18:54.348Z,10.82
2022-12-08T07:20:55.793Z,10.98
2022-12-08T07:22:57.207Z,12.65
2022-12-08T07:24:58.594Z,10.80
2022-12-08T07:27:00.028Z,12.05
2022-12-08T07:29:01.742Z,13.07
2022-12-08T07:31:04.600Z,12.88
2022-12-08T07:33:06.598Z,12.90
2022-12-08T07:35:08.823Z,14.27
2022-12-08T07:37:10.194Z,10.70
2022-12-08T07:39:11.620Z,12.70
2022-12-08T07:41:18.754Z,12.70
2022-12-08T07:45:23.668Z,11.02
2022-12-08T07:47:31.298Z,15.55
2022-12-08T07:49:33.133Z,12.07
2022-12-08T07:51:34.553Z,10.45
2022-12-08T07:53:36.014Z,15.38
2022-12-08T07:55:42.049Z,12.60
2022-12-08T07:57:43.464Z,11.52
2022-12-08T07:59:44.833Z,13.00
2022-12-08T08:02:00.810Z,13.38
2022-12-08T08:04:10.283Z,13.23
2022-12-08T08:06:11.800Z,12.35
2022-12-08T08:08:13.332Z,17.27
2022-12-08T08:10:14.898Z,13.38
2022-12-08T08:12:31.231Z,12.88
2022-12-08T08:14:33.388Z,13.73
2022-12-08T08:16:38.343Z,12.38
2022-12-08T08:18:40.959Z,14.23
2022-12-08T08:20:42.454Z,14.57
2022-12-08T08:22:46.730Z,13.18
2022-12-08T08:24:48.222Z,13.25
2022-12-08T08:26:50.137Z,12.60
2022-12-08T08:28:51.534Z,12.75
2022-12-08T08:30:53.021Z,14.18
2022-12-08T08:32:54.435Z,13.80
2022-12-08T08:34:55.783Z,13.32
2022-12-08T08:36:57.284Z,13.73
2022-12-08T08:38:58.704Z,11.75
2022-12-08T08:41:02.871Z,13.20
2022-12-08T08:43:05.454Z,16.85
2022-12-08T08:45:07.411Z,14.02
2022-12-08T08:47:08.908Z,12.38
2022-12-08T08:49:10.284Z,14.35
2022-12-08T08:51:13.941Z,14.80
2022-12-08T08:53:15.359Z,13.40
2022-12-08T08:55:17.621Z,12.95
2022-12-08T08:57:25.084Z,12.20
2022-12-08T08:59:28.199Z,11.77
2022-12-08T09:01:30.277Z,12.70
2022-12-08T09:03:31.948Z,13.20
2022-12-08T09:05:33.360Z,12.82
2022-12-08T09:07:34.789Z,10.70
2022-12-08T09:09:37.434Z,12.40
2022-12-08T09:11:38.830Z,14.20
2022-12-08T09:13:40.384Z,11.65
2022-12-08T09:15:42.016Z,12.73
2022-12-08T09:17:43.520Z,10.82
2022-12-08T09:19:45.016Z,10.63
2022-12-08T09:21:46.460Z,11.63
2022-12-08T09:23:49.260Z,9.60
2022-12-08T09:25:50.635Z,13.13
2022-12-08T09:27:52.020Z,11.18
2022-12-08T09:29:53.429Z,11.07
2022-12-08T09:31:56.099Z,10.27
2022-12-08T09:33:57.629Z,10.23
2022-12-08T09:36:03.849Z,10.07
2022-12-08T09:38:05.481Z,10.55
2022-12-08T09:40:07.974Z,10.30
2022-12-08T09:42:10.401Z,9.57
2022-12-08T09:44:30.553Z,9.98
2022-12-08T09:46:34.235Z,9.57
2022-12-08T09:48:39.950Z,9.02
2022-12-08T09:50:48.310Z,9.02
2022-12-08T09:53:01.452Z,11.63
2022-12-08T09:55:12.447Z,9.15
2022-12-08T09:57:19.344Z,9.27
2022-12-08T09:59:36.380Z,9.55
2022-12-08T10:01:41.763Z,10.30
2022-12-08T10:03:43.730Z,9.77
2022-12-08T10:05:54.530Z,11.25
2022-12-08T10:08:21.135Z,9.43
2022-12-08T10:10:34.707Z,10.27
2022-12-08T10:14:44.578Z,7.05
2022-12-08T10:16:49.799Z,7.78
2022-12-08T10:19:14.833Z,8.55
2022-12-08T10:21:18.791Z,7.60
2022-12-08T10:23:31.487Z,8.48
2022-12-08T10:25:41.238Z,8.18
2022-12-08T10:27:42.609Z,8.23
2022-12-08T10:29:44.043Z,9.57
2022-12-08T10:31:45.643Z,9.07
2022-12-08T10:33:49.420Z,10.18
2022-12-08T10:35:56.518Z,9.70
2022-12-08T10:40:07.041Z,9.23
2022-12-08T10:42:15.624Z,7.97
2022-12-08T10:44:17.045Z,8.95
2022-12-08T10:46:29.050Z,8.35
2022-12-08T10:48:33.990Z,9.15
2022-12-08T10:50:53.640Z,7.93
2022-12-08T10:52:59.297Z,8.15
2022-12-08T10:55:00.685Z,9.25
2022-12-08T10:57:02.101Z,10.18
2022-12-08T10:59:19.185Z,8.02
2022-12-08T11:01:25.550Z,8.23
2022-12-08T11:03:34.349Z,8.63
2022-12-08T11:05:36.619Z,8.98
2022-12-08T11:07:38.134Z,7.35
2022-12-08T11:09:49.474Z,10.55
2022-12-08T11:12:07.461Z,8.60
2022-12-08T11:14:16.657Z,9.20
2022-12-08T11:16:25.248Z,9.68
2022-12-08T11:18:40.173Z,8.80
2022-12-08T11:20:41.994Z,9.10
2022-12-08T11:22:46.287Z,11.10
2022-12-08T11:24:57.345Z,10.65
2022-12-08T11:27:02.419Z,9.75
2022-12-08T11:29:04.399Z,9.95
2022-12-08T11:31:25.172Z,12.40
2022-12-08T11:33:29.062Z,11.13
2022-12-08T11:35:34.853Z,8.90
2022-12-08T11:37:40.502Z,10.63
2022-12-08T11:39:47.086Z,11.50
2022-12-08T11:41:51.648Z,10.70
2022-12-08T11:43:56.815Z,10.43
2022-12-08T11:46:14.416Z,12.55
2022-12-08T11:48:39.421Z,11.57
2022-12-08T11:50:43.467Z,10.02
2022-12-08T11:52:50.685Z,9.93
2022-12-08T11:55:01.235Z,11.98
2022-12-08T11:57:05.778Z,11.15
2022-12-08T11:59:13.163Z,10.50
2022-12-08T12:01:25.960Z,11.70
2022-12-08T12:03:34.914Z,12.50
2022-12-08T12:06:13.669Z,12.43
2022-12-08T12:08:56.064Z,11.82
2022-12-08T12:11:46.239Z,10.43
2022-12-08T12:14:21.419Z,10.65
2022-12-08T12:16:56.559Z,11.35
2022-12-08T12:19:04.823Z,11.38
2022-12-08T12:21:34.056Z,12.45
2022-12-08T12:23:43.644Z,12.90
2022-12-08T12:25:56.706Z,11.65
2022-12-08T12:28:03.214Z,13.68
2022-12-08T12:30:09.839Z,13.90
2022-12-08T12:32:12.235Z,13.43
2022-12-08T12:34:19.377Z,14.77
2022-12-08T12:38:48.871Z,14.10
2022-12-08T12:40:50.342Z,15.63
2022-12-08T12:42:54.812Z,15.70
2022-12-08T12:45:12.092Z,16.13
2022-12-08T12:47:15.068Z,15.40
2022-12-08T12:49:43.729Z,15.90
2022-12-08T12:51:45.805Z,16.08
2022-12-08T12:53:49.840Z,16.98
2022-12-08T12:56:02.451Z,16.75
2022-12-08T12:58:21.368Z,17.33
2022-12-08T13:00:25.749Z,18.10
2022-12-08T13:02:38.793Z,15.90
2022-12-08T13:04:40.411Z,16.25
2022-12-08T13:06:45.651Z,15.75
2022-12-08T13:08:53.633Z,13.98
2022-12-08T13:11:05.532Z,12.90
2022-12-08T13:13:17.742Z,11.80
2022-12-08T13:15:20.756Z,12.23
2022-12-08T13:17:29.813Z,12.35
2022-12-08T13:19:32.980Z,11.82
2022-12-08T13:21:38.070Z,12.70
2022-12-08T13:23:39.471Z,10.75
2022-12-08T13:25:46.388Z,14.93
2022-12-08T13:27:54.682Z,13.63
2022-12-08T13:30:41.332Z,11.93
2022-12-08T13:33:17.275Z,11.85
2022-12-08T13:35:18.074Z,9.43
2022-12-08T13:37:26.646Z,9.63
2022-12-08T13:39:35.178Z,11.23
2022-12-08T13:41:41.557Z,8.90
2022-12-08T13:44:20.605Z,9.05
2022-12-08T13:47:09.385Z,9.20
2022-12-08T13:58:37.210Z,8.45
2022-12-08T14:00:39.160Z,10.10
2022-12-08T14:02:48.339Z,8.95
2022-12-08T14:07:11.960Z,9.43
2022-12-08T14:09:17.313Z,9.30
2022-12-08T14:11:33.805Z,10.73
2022-12-08T14:13:35.340Z,8.52
2022-12-08T14:15:38.553Z,9.18
2022-12-08T14:17:40.887Z,9.93
2022-12-08T14:20:10.694Z,10.75
2022-12-08T14:22:17.319Z,10.82
2022-12-08T14:24:18.839Z,11.63
2022-12-08T14:26:20.235Z,9.73
2022-12-08T14:28:21.892Z,10.60
2022-12-08T14:30:30.833Z,10.10
2022-12-08T14:32:34.103Z,10.43
2022-12-08T14:34:40.955Z,8.50
2022-12-08T14:36:42.597Z,10.77
2022-12-08T14:38:45.043Z,10.52
2022-12-08T14:41:07.693Z,9.95
2022-12-08T14:43:09.139Z,8.57
2022-12-08T14:45:13.032Z,10.40
2022-12-08T14:47:20.983Z,11.00
2022-12-08T14:49:34.134Z,11.63
2022-12-08T14:51:36.745Z,10.70
2022-12-08T14:54:00.597Z,10.90
2022-12-08T14:56:15.122Z,12.23
2022-12-08T14:58:28.888Z,11.35
2022-12-08T15:00:31.568Z,11.43
2022-12-08T15:02:33.046Z,13.13
2022-12-08T15:04:37.894Z,11.93
2022-12-08T15:07:03.622Z,11.98
2022-12-08T15:09:29.616Z,11.25
2022-12-08T15:11:34.124Z,12.35
2022-12-08T15:13:35.529Z,12.95
2022-12-08T15:15:46.132Z,13.43
2022-12-08T15:17:47.541Z,11.52
2022-12-08T15:19:56.374Z,16.23
2022-12-08T15:22:07.844Z,11.63
2022-12-08T15:24:13.136Z,10.98
2022-12-08T15:26:23.465Z,11.40
2022-12-08T15:28:30.310Z,11.73
2022-12-08T15:32:33.426Z,9.82
2022-12-08T15:34:34.801Z,12.10
2022-12-08T15:36:38.009Z,13.45
2022-12-08T15:38:39.625Z,13.25
2022-12-08T15:40:41.013Z,13.25
2022-12-08T15:42:42.461Z,14.07
2022-12-08T15:44:44.345Z,13.65
2022-12-08T15:46:45.828Z,13.73
2022-12-08T15:48:47.467Z,13.30
2022-12-08T15:50:49.949Z,15.20
2022-12-08T15:52:51.582Z,14.80
2022-12-08T15:54:53.105Z,13.63
2022-12-08T15:57:18.544Z,15.85
2022-12-08T15:59:24.592Z,14.23
2022-12-08T16:01:26.623Z,16.45
2022-12-08T16:06:31.099Z,17.35
2022-12-08T16:08:44.654Z,16.92
2022-12-08T16:11:10.674Z,15.82
2022-12-08T16:16:00.682Z,15.55
2022-12-08T16:18:03.485Z,18.25
2022-12-08T16:20:07.530Z,18.55
2022-12-08T16:22:52.435Z,18.38
2022-12-08T16:24:38.524Z,17.40
2022-12-08T16:29:01.407Z,16.75
2022-12-08T16:31:02.972Z,18.35
2022-12-08T16:33:05.075Z,17.77
2022-12-08T16:35:07.033Z,19.42
2022-12-08T16:37:19.637Z,18.58
2022-12-08T16:39:21.129Z,17.27
2022-12-08T16:41:41.263Z,21.00
2022-12-08T16:43:42.695Z,18.02
2022-12-08T16:45:45.243Z,19.85
2022-12-08T16:47:52.290Z,19.38
2022-12-08T16:49:53.739Z,19.17
2022-12-08T16:51:55.193Z,17.35
2022-12-08T16:53:58.256Z,18.08
2022-12-08T16:55:59.750Z,20.83
2022-12-08T16:58:02.573Z,18.85
2022-12-08T17:00:07.748Z,24.48
2022-12-08T17:02:15.123Z,21.85
2022-12-08T17:04:33.379Z,20.13
2022-12-08T17:06:34.852Z,19.25
2022-12-08T17:08:36.447Z,20.52
2022-12-08T17:10:39.339Z,22.88
2022-12-08T17:12:41.050Z,21.55
2022-12-08T17:14:42.581Z,22.85
2022-12-08T17:16:45.052Z,26.55
2022-12-08T17:18:47.419Z,21.42
2022-12-08T17:20:48.847Z,20.17
2022-12-08T17:22:50.341Z,19.20
2022-12-08T17:24:51.775Z,20.88
2022-12-08T17:26:53.155Z,23.52
2022-12-08T17:29:01.927Z,23.20
2022-12-08T17:31:14.544Z,19.63
2022-12-08T17:33:15.938Z,22.70
2022-12-08T17:35:17.506Z,21.65
2022-12-08T17:37:19.385Z,23.65
2022-12-08T17:39:20.798Z,18.88
2022-12-08T17:41:22.494Z,23.60
2022-12-08T17:43:24.404Z,25.48
2022-12-08T17:45:25.799Z,22.77
2022-12-08T17:47:27.318Z,24.75
2022-12-08T17:49:30.030Z,22.23
2022-12-08T17:51:31.418Z,20.10
2022-12-08T17:53:37.261Z,21.65
2022-12-08T17:55:39.178Z,23.08
2022-12-08T17:57:41.398Z,24.17
2022-12-08T17:59:42.821Z,22.80
2022-12-08T18:01:44.327Z,25.02
2022-12-08T18:03:45.860Z,22.13
2022-12-08T18:05:47.504Z,21.88
2022-12-08T18:07:49.828Z,24.00
2022-12-08T18:09:51.511Z,22.80
2022-12-08T18:11:52.961Z,20.45
2022-12-08T18:13:55.241Z,19.83
2022-12-08T18:15:56.703Z,19.65
2022-12-08T18:17:58.142Z,24.55
2022-12-08T18:19:59.617Z,21.60
2022-12-08T18:22:01.421Z,19.25
2022-12-08T18:24:03.452Z,24.85
2022-12-08T18:26:06.386Z,26.33
2022-12-08T18:28:07.831Z,21.85
2022-12-08T18:30:14.093Z,22.55
2022-12-08T18:32:15.583Z,24.52
2022-12-08T18:34:18.849Z,22.45
2022-12-08T18:36:24.123Z,24.08
2022-12-08T18:38:25.553Z,25.83
2022-12-08T18:40:28.028Z,21.52
2022-12-08T18:42:29.495Z,23.98
2022-12-08T18:44:30.990Z,23.90
2022-12-08T18:46:32.410Z,22.45
2022-12-08T18:48:35.585Z,23.42
2022-12-08T18:50:36.982Z,26.45
2022-12-08T18:52:38.543Z,24.98
2022-12-08T18:55:05.183Z,21.38
2022-12-08T18:57:01.576Z,24.60
2022-12-08T18:59:08.730Z,26.35
2022-12-08T19:03:43.060Z,19.45
2022-12-08T19:05:50.306Z,22.50
2022-12-08T19:07:52.185Z,26.05
2022-12-08T19:09:54.077Z,20.25
2022-12-08T19:11:56.660Z,24.25
2022-12-08T19:13:58.088Z,23.83
2022-12-08T19:15:59.754Z,25.17
2022-12-08T19:18:01.315Z,21.25
2022-12-08T19:20:03.587Z,22.30
2022-12-08T19:22:05.086Z,22.80
2022-12-08T19:24:07.278Z,20.08
2022-12-08T19:26:11.146Z,21.92
2022-12-08T19:28:12.546Z,21.80
2022-12-08T19:30:14.412Z,24.55
2022-12-08T19:32:15.908Z,21.27
2022-12-08T19:34:17.381Z,24.10
2022-12-08T19:36:21.186Z,23.05
2022-12-08T19:38:22.627Z,24.33
2022-12-08T19:40:42.702Z,22.30
2022-12-08T19:43:02.897Z,25.50
2022-12-08T19:45:21.333Z,20.40
2022-12-08T19:47:27.015Z,21.33
2022-12-08T19:49:28.998Z,23.40
2022-12-08T19:51:30.392Z,20.73
2022-12-08T19:53:31.826Z,21.38
2022-12-08T19:55:33.343Z,21.40
2022-12-08T19:57:34.799Z,20.63
2022-12-08T19:59:36.290Z,25.70
2022-12-08T20:01:38.605Z,23.60
2022-12-08T20:03:40.142Z,22.27
2022-12-08T20:05:43.024Z,20.73
2022-12-08T20:07:44.631Z,25.50
2022-12-08T20:09:46.099Z,24.35
2022-12-08T20:11:47.481Z,25.02
2022-12-08T20:13:49.089Z,25.65
2022-12-08T20:15:50.909Z,24.05
2022-12-08T20:17:52.345Z,23.52
2022-12-08T20:19:55.844Z,23.92
2022-12-08T20:21:57.588Z,25.67
2022-12-08T20:23:59.020Z,22.90
2022-12-08T20:26:04.652Z,23.00
2022-12-08T20:28:06.685Z,26.23
2022-12-08T20:30:15.049Z,21.73
2022-12-08T20:32:18.231Z,24.98
2022-12-08T20:34:19.919Z,21.55
2022-12-08T20:36:22.494Z,24.13
2022-12-08T20:38:23.926Z,22.55
2022-12-08T20:40:25.572Z,21.42
2022-12-08T20:42:27.213Z,24.85
2022-12-08T20:44:30.120Z,21.85
2022-12-08T20:46:32.220Z,23.38
2022-12-08T20:48:33.776Z,21.45
2022-12-08T20:50:35.343Z,25.25
2022-12-08T20:52:37.893Z,19.65
2022-12-08T20:54:39.487Z,22.33
2022-12-08T20:56:47.947Z,23.75
2022-12-08T20:58:50.750Z,19.58
2022-12-08T21:00:52.188Z,23.92
2022-12-08T21:02:57.570Z,21.40
2022-12-08T21:04:59.309Z,24.20
2022-12-08T21:07:00.942Z,22.45
2022-12-08T21:09:02.699Z,22.10
2022-12-08T21:11:05.311Z,21.25
2022-12-08T21:13:08.134Z,24.55
2022-12-08T21:15:12.040Z,21.95
2022-12-08T21:17:13.546Z,23.77
2022-12-08T21:19:15.202Z,24.05
2022-12-08T21:21:17.831Z,22.85
2022-12-08T21:23:19.515Z,21.42
2022-12-08T21:25:21.036Z,22.55
2022-12-08T21:27:22.511Z,21.42
2022-12-08T21:29:24.043Z,18.85
2022-12-08T21:31:31.585Z,20.92
2022-12-08T21:33:33.534Z,21.67
2022-12-08T21:35:35.147Z,20.42
2022-12-08T21:37:36.997Z,23.92
2022-12-08T21:39:38.561Z,24.35
2022-12-08T21:41:58.818Z,23.23
2022-12-08T21:44:00.367Z,23.88
2022-12-08T21:46:02.029Z,22.98
2022-12-08T21:48:10.978Z,24.75
2022-12-08T21:50:14.415Z,24.38
2022-12-08T21:52:15.977Z,21.70
2022-12-08T21:54:19.226Z,22.90
2022-12-08T21:56:21.089Z,22.58
2022-12-08T21:58:22.592Z,19.55
2022-12-08T22:00:24.353Z,21.23
2022-12-08T22:02:26.231Z,26.58
2022-12-08T22:04:28.050Z,27.67
2022-12-08T22:06:30.098Z,25.42
2022-12-08T22:08:31.811Z,21.98
2022-12-08T22:10:33.618Z,20.98
2022-12-08T22:12:35.791Z,24.30
2022-12-08T22:14:38.292Z,22.33
2022-12-08T22:16:39.911Z,22.30
2022-12-08T22:18:42.456Z,26.23
2022-12-08T22:20:44.541Z,24.42
2022-12-08T22:22:46.895Z,23.75
2022-12-08T22:24:48.651Z,24.33
2022-12-08T22:26:50.627Z,24.73
2022-12-08T22:28:52.322Z,22.38
2022-12-08T22:30:53.951Z,24.35
2022-12-08T22:32:55.595Z,23.75
2022-12-08T22:34:57.285Z,24.55
2022-12-08T22:36:58.857Z,26.08
2022-12-08T22:39:02.076Z,24.42
2022-12-08T22:41:05.166Z,26.08
2022-12-08T22:43:09.051Z,24.85
2022-12-08T22:45:10.987Z,26.85
2022-12-08T22:47:12.735Z,26.63
2022-12-08T22:49:14.258Z,29.25
2022-12-08T22:51:16.509Z,27.48
2022-12-08T22:53:17.980Z,24.08
2022-12-08T22:55:19.461Z,25.33
2022-12-08T22:57:20.878Z,23.98
2022-12-08T22:59:22.463Z,24.80
2022-12-08T23:01:27.786Z,24.08
2022-12-08T23:03:29.732Z,26.73
2022-12-08T23:05:38.192Z,28.65
2022-12-08T23:07:40.278Z,29.05
2022-12-08T23:09:41.849Z,26.45
2022-12-08T23:11:44.267Z,27.90
2022-12-08T23:13:46.227Z,30.67
2022-12-08T23:15:47.859Z,25.90
2022-12-08T23:17:49.631Z,26.48
2022-12-08T23:19:51.079Z,27.05
2022-12-08T23:21:52.595Z,23.85
2022-12-08T23:23:54.164Z,27.70
2022-12-08T23:25:55.546Z,29.77
2022-12-08T23:27:56.964Z,29.17
2022-12-08T23:29:58.621Z,26.45
2022-12-08T23:32:00.470Z,23.40
2022-12-08T23:34:02.561Z,25.90
2022-12-08T23:36:04.442Z,28.70
2022-12-08T23:38:05.881Z,25.25
2022-12-08T23:40:08.214Z,25.88
2022-12-08T23:42:10.161Z,25.65
2022-12-08T23:44:12.541Z,29.30
2022-12-08T23:46:16.031Z,27.05
2022-12-08T23:48:17.659Z,27.42
2022-12-08T23:50:19.182Z,26.48
2022-12-08T23:52:20.631Z,24.27
2022-12-08T23:54:22.260Z,26.80
2022-12-08T23:56:29.893Z,25.35
2022-12-08T23:58:32.378Z,25.15
